Time;durP1;ratioP1;P1;durP2;ratioP2;P2;SDS_P1;SDS_P2;PMS_P1;PMS_P2;Temp;Humidity;BMP_temperature;BMP_pressure;BME280_temperature;BME280_humidity;BME280_pressure;Samples;Min_cycle;Max_cycle;Signal;HPM_P1;HPM_P2
2023/03/13 00:01:30;;;;;;;19.65;5.25;;;10.10;99.90;;;;;;5012333;28;20033;-48
2023/03/13 00:03:56;;;;;;;17.10;5.07;;;10.10;99.90;;;;;;5012309;28;20072;-49
2023/03/13 00:06:25;;;;;;;23.02;4.93;;;10.20;99.90;;;;;;5012144;28;20026;-50
2023/03/13 00:08:50;;;;;;;19.60;4.60;;;10.20;99.90;;;;;;5012364;28;20022;-48
2023/03/13 00:11:16;;;;;;;20.48;5.32;;;10.20;99.90;;;;;;5013265;28;20041;-52
2023/03/13 00:13:42;;;;;;;14.07;3.47;;;10.20;99.90;;;;;;5014733;28;20037;-47
2023/03/13 00:16:10;;;;;;;23.30;4.68;;;10.20;99.90;;;;;;5031945;23;20402;-50
2023/03/13 00:18:37;;;;;;;16.83;4.55;;;10.20;99.90;;;;;;5011860;28;20026;-51
2023/03/13 00:21:08;;;;;;;23.17;4.82;;;10.20;99.90;;;;;;5010851;28;20026;-54
2023/03/13 00:23:36;;;;;;;18.88;4.85;;;10.30;99.90;;;;;;5012209;28;20106;-48
2023/03/13 00:26:07;;;;;;;20.52;5.38;;;10.30;99.90;;;;;;5011872;28;20026;-50
2023/03/13 00:28:35;;;;;;;18.05;3.97;;;10.30;99.90;;;;;;5010359;28;20029;-50
2023/03/13 00:31:08;;;;;;;19.55;4.70;;;10.30;99.90;;;;;;5012018;28;20026;-47
2023/03/13 00:33:43;;;;;;;15.70;3.65;;;10.20;99.90;;;;;;5010597;28;20021;-47
2023/03/13 00:36:12;;;;;;;19.35;5.32;;;10.30;99.90;;;;;;5011505;28;20026;-51
2023/03/13 00:38:38;;;;;;;19.30;5.00;;;10.20;99.90;;;;;;5011674;28;20037;-51
2023/03/13 00:41:12;;;;;;;10.93;4.78;;;10.20;99.90;;;;;;5011764;28;20097;-47
2023/03/13 00:43:40;;;;;;;17.85;4.55;;;10.20;99.90;;;;;;5011650;28;20022;-47
2023/03/13 00:46:06;;;;;;;13.27;4.30;;;10.20;99.90;;;;;;5011522;28;20026;-49
2023/03/13 00:48:32;;;;;;;15.07;3.67;;;10.20;99.90;;;;;;5011626;28;20033;-48
2023/03/13 00:50:58;;;;;;;20.65;4.00;;;10.20;99.90;;;;;;5011701;28;20030;-48
2023/03/13 00:53:23;;;;;;;15.88;4.40;;;10.20;99.90;;;;;;5011651;28;20060;-51
2023/03/13 00:56:00;;;;;;;14.30;4.32;;;10.10;99.90;;;;;;5011620;28;20034;-49
2023/03/13 00:58:27;;;;;;;14.95;5.10;;;10.10;99.90;;;;;;5011635;28;20397;-49
2023/03/13 01:00:54;;;;;;;30.60;11.52;;;10.10;99.90;;;;;;5011710;28;20018;-50
2023/03/13 01:03:21;;;;;;;15.60;5.68;;;10.10;99.90;;;;;;5011984;28;20030;-47
2023/03/13 01:05:55;;;;;;;16.50;4.45;;;10.10;99.90;;;;;;5011670;28;20401;-51
2023/03/13 01:08:21;;;;;;;15.13;4.90;;;10.00;99.90;;;;;;5011783;28;20441;-50
2023/03/13 01:10:46;;;;;;;15.40;4.10;;;10.00;99.90;;;;;;5011840;28;20265;-49
2023/03/13 01:13:12;;;;;;;20.27;5.10;;;10.00;99.90;;;;;;5011705;28;20044;-51
2023/03/13 01:15:37;;;;;;;18.15;4.50;;;10.00;99.90;;;;;;5012632;28;20033;-47
2023/03/13 01:18:03;;;;;;;11.48;3.80;;;10.10;99.90;;;;;;5011839;28;20485;-50
2023/03/13 01:20:29;;;;;;;19.90;4.30;;;10.10;99.90;;;;;;5011191;28;20030;-51
2023/03/13 01:22:55;;;;;;;17.58;4.15;;;10.10;99.90;;;;;;5011247;28;20447;-48
2023/03/13 01:25:20;;;;;;;16.38;3.97;;;10.10;99.90;;;;;;5010956;28;20101;-51
2023/03/13 01:27:46;;;;;;;20.45;3.40;;;10.10;99.90;;;;;;5011045;28;20067;-47
2023/03/13 01:30:11;;;;;;;15.57;4.40;;;10.10;99.90;;;;;;5010891;28;20029;-48
2023/03/13 01:32:37;;;;;;;15.50;4.13;;;10.20;99.90;;;;;;5011225;28;20426;-48
2023/03/13 01:35:03;;;;;;;24.92;4.80;;;10.10;99.90;;;;;;5011174;28;20030;-47
2023/03/13 01:37:28;;;;;;;17.13;3.90;;;10.20;99.90;;;;;;5011285;28;20022;-49
2023/03/13 01:39:54;;;;;;;15.63;3.78;;;10.20;99.90;;;;;;5014749;28;20034;-50
2023/03/13 01:42:19;;;;;;;17.88;4.18;;;10.30;99.90;;;;;;5013509;28;20083;-48
2023/03/13 01:44:53;;;;;;;19.20;5.07;;;10.30;99.90;;;;;;5014850;28;20030;-49
2023/03/13 01:47:19;;;;;;;17.17;4.90;;;10.40;99.90;;;;;;5014753;28;20310;-47
2023/03/13 01:49:46;;;;;;;20.58;5.38;;;10.40;99.90;;;;;;5014642;28;20052;-48
2023/03/13 01:52:26;;;;;;;18.67;4.22;;;10.40;99.90;;;;;;5014797;28;20057;-50
2023/03/13 01:55:10;;;;;;;16.70;4.63;;;10.50;99.90;;;;;;5014832;28;20017;-51
2023/03/13 01:57:41;;;;;;;17.48;4.55;;;10.40;99.90;;;;;;5015032;28;20026;-51
2023/03/13 02:00:28;;;;;;;19.08;4.68;;;10.50;99.90;;;;;;5014653;28;20401;-46
2023/03/13 02:02:57;;;;;;;14.45;4.30;;;10.50;99.90;;;;;;5014307;28;20041;-50
2023/03/13 02:05:26;;;;;;;17.98;4.55;;;10.50;99.90;;;;;;5014217;28;20022;-46
2023/03/13 02:08:17;;;;;;;19.95;3.88;;;10.60;99.90;;;;;;5014493;28;20032;-47
2023/03/13 02:11:04;;;;;;;13.45;4.05;;;10.50;99.90;;;;;;5008834;28;20034;-46
2023/03/13 02:13:30;;;;;;;14.40;3.45;;;10.50;99.90;;;;;;5014288;28;20452;-49
2023/03/13 02:15:56;;;;;;;19.13;4.10;;;10.60;99.90;;;;;;5013985;28;20096;-47
2023/03/13 02:18:21;;;;;;;15.25;3.25;;;10.50;99.90;;;;;;5014367;28;20565;-46
2023/03/13 02:20:50;;;;;;;16.40;4.38;;;10.60;99.90;;;;;;5014363;28;20105;-48
2023/03/13 02:23:30;;;;;;;15.40;3.90;;;10.50;99.90;;;;;;5014753;28;20378;-51
2023/03/13 02:25:55;;;;;;;15.70;4.07;;;10.60;99.90;;;;;;5013860;28;20073;-49
2023/03/13 02:28:28;;;;;;;16.40;4.00;;;10.60;99.90;;;;;;5013972;28;20069;-49
2023/03/13 02:30:57;;;;;;;13.48;3.72;;;10.50;99.90;;;;;;5013972;28;20032;-50
2023/03/13 02:33:26;;;;;;;14.10;4.80;;;10.50;99.90;;;;;;5014034;28;20474;-47
2023/03/13 02:35:52;;;;;;;20.17;4.70;;;10.50;99.90;;;;;;5013576;28;20034;-49
2023/03/13 02:38:24;;;;;;;10.35;3.08;;;10.50;99.90;;;;;;5013719;28;20465;-48
2023/03/13 02:40:51;;;;;;;15.70;4.85;;;10.50;99.90;;;;;;5013853;28;20091;-53
2023/03/13 02:43:28;;;;;;;12.35;3.42;;;10.40;99.90;;;;;;5013867;28;20033;-48
2023/03/13 02:46:23;;;;;;;12.43;4.20;;;10.50;99.90;;;;;;5013559;28;20030;-52
2023/03/13 02:48:51;;;;;;;15.15;3.45;;;10.50;99.90;;;;;;5004844;28;20045;-47
2023/03/13 02:51:40;;;;;;;14.55;3.35;;;10.40;99.90;;;;;;5011944;28;20058;-47
2023/03/13 02:54:11;;;;;;;15.57;3.67;;;10.40;99.90;;;;;;5013629;28;20486;-48
2023/03/13 02:56:39;;;;;;;12.63;3.90;;;10.30;99.90;;;;;;5013260;28;20069;-50
2023/03/13 02:59:06;;;;;;;11.82;3.28;;;10.40;99.90;;;;;;5012313;28;20064;-47
2023/03/13 03:01:32;;;;;;;15.23;3.25;;;10.30;99.90;;;;;;5013490;28;20025;-44
2023/03/13 03:03:57;;;;;;;15.65;3.63;;;10.30;99.90;;;;;;5013245;28;20116;-48
2023/03/13 03:06:23;;;;;;;15.07;4.60;;;10.30;99.90;;;;;;5013209;28;20025;-47
2023/03/13 03:08:48;;;;;;;18.83;4.75;;;10.30;99.90;;;;;;5013560;28;20022;-47
2023/03/13 03:11:14;;;;;;;13.57;3.75;;;10.20;99.90;;;;;;5013157;28;20064;-47
2023/03/13 03:13:39;;;;;;;21.92;4.95;;;10.20;99.90;;;;;;5013090;28;20071;-47
2023/03/13 03:16:10;;;;;;;11.48;3.45;;;10.30;99.90;;;;;;5012870;28;20117;-49
2023/03/13 03:18:37;;;;;;;16.40;4.90;;;10.30;99.90;;;;;;5013215;28;20061;-48
2023/03/13 03:21:05;;;;;;;8.55;3.05;;;10.30;99.90;;;;;;5013031;28;20105;-47
2023/03/13 03:23:33;;;;;;;18.42;3.60;;;10.30;99.90;;;;;;5012949;28;20393;-48
2023/03/13 03:25:59;;;;;;;17.73;4.07;;;10.40;99.90;;;;;;5011530;28;20389;-48
2023/03/13 03:28:25;;;;;;;13.23;3.40;;;10.40;99.90;;;;;;5012864;28;20490;-47
2023/03/13 03:30:53;;;;;;;8.88;3.00;;;10.50;99.90;;;;;;5013161;28;20018;-48
2023/03/13 03:33:22;;;;;;;12.95;3.38;;;10.50;99.90;;;;;;5012821;28;20018;-46
2023/03/13 03:35:48;;;;;;;17.40;3.50;;;10.60;99.90;;;;;;5012459;28;20030;-50
2023/03/13 03:38:14;;;;;;;12.48;3.40;;;10.50;99.90;;;;;;5012612;28;20022;-53
2023/03/13 03:40:39;;;;;;;15.77;3.60;;;10.60;99.90;;;;;;5011469;28;20065;-47
2023/03/13 03:43:05;;;;;;;11.35;3.20;;;10.60;99.90;;;;;;5012732;28;20033;-47
2023/03/13 03:45:30;;;;;;;13.80;3.58;;;10.50;99.90;;;;;;5012563;28;20030;-50
2023/03/13 03:47:58;;;;;;;14.23;3.83;;;10.50;99.90;;;;;;5011423;28;20018;-47
2023/03/13 03:50:27;;;;;;;16.25;3.83;;;10.50;99.90;;;;;;5012400;28;20041;-47
2023/03/13 03:52:52;;;;;;;6.88;2.45;;;10.50;99.90;;;;;;5012402;28;20540;-49
2023/03/13 03:55:18;;;;;;;13.60;3.10;;;10.40;99.90;;;;;;5011205;28;20038;-46
2023/03/13 03:57:44;;;;;;;17.55;2.85;;;10.40;99.90;;;;;;5012356;28;20026;-49
2023/03/13 04:00:12;;;;;;;9.18;2.85;;;10.40;99.90;;;;;;5012368;28;20353;-47
2023/03/13 04:02:38;;;;;;;16.58;3.40;;;10.40;99.90;;;;;;5012297;28;20105;-47
2023/03/13 04:05:04;;;;;;;12.35;2.63;;;10.40;99.90;;;;;;5012303;28;20101;-47
2023/03/13 04:07:29;;;;;;;12.85;2.80;;;10.30;99.90;;;;;;5012249;28;20030;-51
2023/03/13 04:09:55;;;;;;;11.73;3.00;;;10.30;99.90;;;;;;5012076;28;20025;-52
2023/03/13 04:12:20;;;;;;;13.43;2.35;;;10.30;99.90;;;;;;5012204;28;20496;-46
2023/03/13 04:14:46;;;;;;;14.45;2.70;;;10.20;99.90;;;;;;5012435;28;20383;-46
2023/03/13 04:17:11;;;;;;;7.07;2.70;;;10.30;99.90;;;;;;5011939;28;20117;-48
2023/03/13 04:19:37;;;;;;;7.88;2.15;;;10.30;99.90;;;;;;5011997;28;20075;-51
2023/03/13 04:22:03;;;;;;;10.65;2.40;;;10.30;99.90;;;;;;5010947;28;20068;-50
2023/03/13 04:24:28;;;;;;;9.02;2.85;;;10.30;99.90;;;;;;5012179;28;20029;-48
2023/03/13 04:26:54;;;;;;;11.93;3.00;;;10.30;99.90;;;;;;5012093;28;20061;-49
2023/03/13 04:29:19;;;;;;;8.88;2.00;;;10.30;99.90;;;;;;5012224;28;20092;-45
2023/03/13 04:31:44;;;;;;;11.57;2.20;;;10.30;99.90;;;;;;5011994;28;20493;-47
2023/03/13 04:34:10;;;;;;;5.35;2.58;;;10.30;99.90;;;;;;5011672;28;20038;-51
2023/03/13 04:36:35;;;;;;;8.65;2.45;;;10.30;99.90;;;;;;5011750;28;20065;-51
2023/03/13 04:39:01;;;;;;;9.60;2.28;;;10.30;99.90;;;;;;5011750;28;20073;-48
2023/03/13 04:41:27;;;;;;;9.82;1.92;;;10.30;99.90;;;;;;5011883;28;20026;-47
2023/03/13 04:43:52;;;;;;;7.50;2.75;;;10.40;99.90;;;;;;5011782;28;20063;-47
2023/03/13 04:46:18;;;;;;;5.35;1.92;;;10.40;99.90;;;;;;5011599;28;20034;-51
2023/03/13 04:48:43;;;;;;;7.47;2.05;;;10.40;99.90;;;;;;5011596;28;20442;-47
2023/03/13 04:51:09;;;;;;;6.07;2.33;;;10.50;99.90;;;;;;5012060;28;20441;-45
2023/03/13 04:53:35;;;;;;;8.52;1.85;;;10.40;99.90;;;;;;5011664;28;20472;-50
2023/03/13 04:56:00;;;;;;;7.55;1.70;;;10.40;99.90;;;;;;5011510;28;20029;-48
2023/03/13 04:58:25;;;;;;;5.03;1.27;;;10.50;99.90;;;;;;5011688;28;20080;-52
2023/03/13 05:00:52;;;;;;;7.88;2.08;;;10.50;99.90;;;;;;5011691;28;20113;-52
2023/03/13 05:03:18;;;;;;;4.43;1.70;;;10.60;99.90;;;;;;5010334;28;20541;-46
2023/03/13 05:05:43;;;;;;;7.70;2.10;;;10.60;99.90;;;;;;5010671;28;20121;-50
2023/03/13 05:08:10;;;;;;;4.95;1.70;;;10.60;99.90;;;;;;5011909;28;20041;-55
2023/03/13 05:10:35;;;;;;;7.95;1.85;;;10.60;99.90;;;;;;5011358;28;20478;-51
2023/03/13 05:13:01;;;;;;;5.40;2.33;;;10.70;99.90;;;;;;5012584;28;20025;-55
2023/03/13 05:15:27;;;;;;;2.72;1.45;;;10.60;99.90;;;;;;5015191;28;20103;-47
2023/03/13 05:17:52;;;;;;;9.45;2.88;;;10.60;99.90;;;;;;5015446;28;20395;-48
2023/03/13 05:20:18;;;;;;;12.15;2.25;;;10.60;99.90;;;;;;5015260;28;20449;-49
2023/03/13 05:22:43;;;;;;;6.80;1.70;;;10.60;99.90;;;;;;5014170;28;20409;-53
2023/03/13 05:25:09;;;;;;;6.65;1.77;;;10.60;99.90;;;;;;5015244;28;20048;-48
2023/03/13 05:27:35;;;;;;;4.05;1.52;;;10.60;99.90;;;;;;5015338;28;20397;-50
2023/03/13 05:30:00;;;;;;;5.95;1.95;;;10.60;99.90;;;;;;5014257;28;20022;-49
2023/03/13 05:32:26;;;;;;;6.97;1.52;;;10.60;99.90;;;;;;5015442;28;20033;-54
2023/03/13 05:34:51;;;;;;;6.80;1.90;;;10.60;99.90;;;;;;5015079;28;20482;-49
2023/03/13 05:37:17;;;;;;;5.97;1.70;;;10.60;99.90;;;;;;5014860;28;20034;-53
2023/03/13 05:39:42;;;;;;;6.63;1.70;;;10.70;99.90;;;;;;5014857;28;20033;-50
2023/03/13 05:42:08;;;;;;;7.32;2.08;;;10.70;99.90;;;;;;5014930;28;20073;-53
2023/03/13 05:44:33;;;;;;;3.70;2.13;;;10.70;99.90;;;;;;5014877;28;20548;-50
2023/03/13 05:46:59;;;;;;;9.77;3.55;;;10.80;99.90;;;;;;5014792;28;20049;-49
2023/03/13 05:49:24;;;;;;;5.22;2.10;;;10.80;99.90;;;;;;5013421;28;20018;-49
2023/03/13 05:51:50;;;;;;;7.28;1.90;;;10.80;99.90;;;;;;5014610;28;20073;-47
2023/03/13 05:54:15;;;;;;;3.95;3.03;;;10.90;99.90;;;;;;5014680;28;20405;-51
2023/03/13 05:56:41;;;;;;;2.95;1.70;;;10.90;99.90;;;;;;5014463;28;20034;-50
2023/03/13 05:59:06;;;;;;;4.28;2.10;;;10.90;99.90;;;;;;5014422;28;20030;-50
2023/03/13 06:01:32;;;;;;;5.03;1.92;;;11.00;99.90;;;;;;5013333;28;20026;-51
2023/03/13 06:03:57;;;;;;;6.10;2.33;;;11.00;99.90;;;;;;5014441;28;20053;-53
2023/03/13 06:06:23;;;;;;;6.95;1.70;;;11.00;99.90;;;;;;5014485;28;20452;-50
2023/03/13 06:08:51;;;;;;;3.33;1.90;;;11.10;99.90;;;;;;5014435;28;20022;-47
2023/03/13 06:11:16;;;;;;;7.22;2.45;;;11.10;99.90;;;;;;5014434;28;20101;-47
2023/03/13 06:13:42;;;;;;;6.85;2.05;;;11.20;99.90;;;;;;5014154;28;20105;-48
2023/03/13 06:16:07;;;;;;;6.93;2.22;;;11.20;99.90;;;;;;5031394;23;20052;-51
2023/03/13 06:18:33;;;;;;;3.65;2.08;;;11.20;99.90;;;;;;4973386;28;20027;-48
2023/03/13 06:21:00;;;;;;;4.53;1.58;;;11.20;99.90;;;;;;4973998;28;20055;-50
2023/03/13 06:23:26;;;;;;;4.47;1.52;;;11.20;99.90;;;;;;4975985;28;20384;-52
2023/03/13 06:25:51;;;;;;;3.80;1.80;;;11.30;99.90;;;;;;4973769;28;20045;-47
2023/03/13 06:28:17;;;;;;;4.25;1.90;;;11.30;99.90;;;;;;4975122;28;20439;-49
2023/03/13 06:30:42;;;;;;;3.47;1.90;;;11.30;99.90;;;;;;4975343;28;20379;-48
2023/03/13 06:33:09;;;;;;;2.90;1.98;;;11.40;99.90;;;;;;4973931;28;20509;-48
2023/03/13 06:35:34;;;;;;;2.65;1.77;;;11.40;99.90;;;;;;4974622;28;20027;-52
2023/03/13 06:38:00;;;;;;;4.30;1.73;;;11.50;99.90;;;;;;4974965;28;20033;-51
2023/03/13 06:40:25;;;;;;;4.78;2.22;;;11.60;99.90;;;;;;4974925;28;20027;-48
2023/03/13 06:42:51;;;;;;;1.90;1.70;;;11.60;99.90;;;;;;4974994;28;20088;-48
2023/03/13 06:45:16;;;;;;;4.35;1.67;;;11.70;99.90;;;;;;4974884;28;20023;-52
2023/03/13 06:47:42;;;;;;;2.28;1.50;;;11.70;99.90;;;;;;4973379;28;20390;-48
2023/03/13 06:50:08;;;;;;;5.60;1.80;;;11.80;99.90;;;;;;4974735;28;20027;-57
2023/03/13 06:52:34;;;;;;;2.55;1.90;;;11.90;99.90;;;;;;4974624;28;20109;-52
2023/03/13 06:54:59;;;;;;;4.60;1.95;;;12.00;99.90;;;;;;4974454;28;20105;-52
2023/03/13 06:57:25;;;;;;;3.38;1.60;;;11.90;99.90;;;;;;4974490;28;20052;-52
2023/03/13 06:59:51;;;;;;;2.20;1.40;;;12.00;99.90;;;;;;4974511;28;20038;-54
2023/03/13 07:02:16;;;;;;;3.80;1.42;;;12.00;99.90;;;;;;4974479;28;20035;-50
2023/03/13 07:04:42;;;;;;;6.93;3.25;;;12.00;99.90;;;;;;4972863;28;20434;-51
2023/03/13 07:07:08;;;;;;;4.55;2.35;;;12.00;99.90;;;;;;4974187;28;20391;-51
2023/03/13 07:09:33;;;;;;;2.67;1.33;;;12.00;99.90;;;;;;4974298;28;20031;-54
2023/03/13 07:11:59;;;;;;;5.85;1.60;;;12.10;99.90;;;;;;4974398;28;20019;-52
2023/03/13 07:14:24;;;;;;;2.70;1.67;;;12.20;99.90;;;;;;4974248;28;20022;-50
2023/03/13 07:16:50;;;;;;;4.43;1.55;;;12.20;99.90;;;;;;4974090;28;20515;-51
2023/03/13 07:19:16;;;;;;;5.50;2.40;;;12.20;99.90;;;;;;4973964;28;20498;-53
2023/03/13 07:21:42;;;;;;;4.88;1.38;;;12.30;99.90;;;;;;4974091;28;20037;-56
2023/03/13 07:24:08;;;;;;;2.08;1.00;;;12.30;99.90;;;;;;4973913;28;20034;-52
2023/03/13 07:26:34;;;;;;;1.80;1.60;;;12.30;99.90;;;;;;4973844;28;20022;-54
2023/03/13 07:28:59;;;;;;;3.72;1.55;;;12.30;99.90;;;;;;4973913;28;20038;-52
2023/03/13 07:31:25;;;;;;;3.38;1.85;;;12.30;99.90;;;;;;4973995;28;20066;-47
2023/03/13 07:33:53;;;;;;;1.48;1.33;;;12.30;99.90;;;;;;4970963;28;20031;-54
2023/03/13 07:36:18;;;;;;;1.60;1.00;;;12.40;99.90;;;;;;4978770;28;20026;-52
2023/03/13 07:38:48;;;;;;;1.40;1.23;;;12.40;99.90;;;;;;4993105;28;20022;-52
2023/03/13 07:41:14;;;;;;;5.03;0.90;;;12.50;99.90;;;;;;4991902;28;20022;-51
2023/03/13 07:43:40;;;;;;;1.85;0.90;;;12.60;99.90;;;;;;4993035;28;20482;-52
2023/03/13 07:46:07;;;;;;;0.75;0.75;;;12.70;99.90;;;;;;4991666;28;20073;-53
2023/03/13 07:48:38;;;;;;;1.17;1.00;;;12.80;99.90;;;;;;4986618;28;20390;-49
2023/03/13 07:51:06;;;;;;;1.13;0.70;;;12.90;99.90;;;;;;4981439;28;20077;-50
2023/03/13 07:53:32;;;;;;;0.88;0.88;;;13.00;99.90;;;;;;4973321;28;20057;-51
2023/03/13 07:56:06;;;;;;;1.33;1.23;;;13.00;99.90;;;;;;4973169;28;20026;-50
2023/03/13 07:58:34;;;;;;;2.90;1.30;;;13.10;99.90;;;;;;4973376;28;20042;-52
2023/03/13 08:01:00;;;;;;;2.65;1.50;;;13.10;99.90;;;;;;4974650;28;20027;-57
2023/03/13 08:03:27;;;;;;;2.63;1.20;;;13.20;99.90;;;;;;4974255;28;20092;-48
2023/03/13 08:06:00;;;;;;;1.30;1.20;;;13.20;99.90;;;;;;4973089;28;20504;-49
2023/03/13 08:08:27;;;;;;;2.22;1.40;;;13.30;99.90;;;;;;4973233;28;20054;-50
2023/03/13 08:10:52;;;;;;;1.38;1.27;;;13.40;99.90;;;;;;4973992;28;20042;-51
2023/03/13 08:13:18;;;;;;;1.33;1.15;;;13.40;99.90;;;;;;4974157;28;20022;-52
2023/03/13 08:15:43;;;;;;;2.47;1.50;;;13.40;99.90;;;;;;4971914;28;20445;-54
2023/03/13 08:18:09;;;;;;;3.80;1.23;;;13.50;99.90;;;;;;4972614;28;20054;-51
2023/03/13 08:20:34;;;;;;;2.03;1.25;;;13.50;99.90;;;;;;4971918;28;20030;-52
2023/03/13 08:23:00;;;;;;;3.33;1.60;;;13.50;99.90;;;;;;4971718;28;20073;-52
2023/03/13 08:25:25;;;;;;;2.83;1.70;;;13.50;99.90;;;;;;4972758;28;20058;-48
2023/03/13 08:27:51;;;;;;;1.83;1.73;;;13.50;99.90;;;;;;4971589;28;20073;-51
2023/03/13 08:30:17;;;;;;;1.65;1.55;;;13.50;99.90;;;;;;4973349;28;20394;-51
2023/03/13 08:32:42;;;;;;;1.75;1.52;;;13.60;99.90;;;;;;4972663;28;20102;-55
2023/03/13 08:35:08;;;;;;;1.92;1.70;;;13.50;99.90;;;;;;4972890;28;20026;-48
2023/03/13 08:37:33;;;;;;;1.63;1.35;;;13.60;99.90;;;;;;4973109;28;20027;-49
2023/03/13 08:39:59;;;;;;;1.70;1.58;;;13.60;99.90;;;;;;4972850;28;20109;-51
2023/03/13 08:42:24;;;;;;;2.88;1.50;;;13.60;99.90;;;;;;4971935;28;20434;-56
2023/03/13 08:44:50;;;;;;;1.75;1.45;;;13.60;99.90;;;;;;4972094;28;20037;-45
2023/03/13 08:47:17;;;;;;;2.15;1.95;;;13.60;99.90;;;;;;4971848;28;20033;-47
2023/03/13 08:49:42;;;;;;;2.08;1.42;;;13.60;99.90;;;;;;4972013;28;20026;-47
2023/03/13 08:52:08;;;;;;;3.65;1.60;;;13.60;99.90;;;;;;4971260;28;20030;-49
2023/03/13 08:54:33;;;;;;;2.85;1.40;;;13.60;99.90;;;;;;4974471;28;20030;-50
2023/03/13 08:56:59;;;;;;;2.10;1.50;;;13.60;99.90;;;;;;4972123;28;20411;-52
2023/03/13 08:59:25;;;;;;;2.28;1.80;;;13.60;99.90;;;;;;4972837;28;20200;-48
2023/03/13 09:01:51;;;;;;;2.25;1.50;;;13.60;99.90;;;;;;4972215;28;20054;-50
2023/03/13 09:04:17;;;;;;;2.00;1.90;;;13.50;99.90;;;;;;4972558;28;20035;-46
2023/03/13 09:06:43;;;;;;;3.85;1.67;;;13.50;99.90;;;;;;4979857;28;20022;-47
2023/03/13 09:09:10;;;;;;;3.28;2.55;;;13.50;99.90;;;;;;4991891;28;20085;-49
2023/03/13 09:11:38;;;;;;;4.22;1.92;;;13.50;99.90;;;;;;4991795;28;20482;-49
2023/03/13 09:14:03;;;;;;;4.18;1.80;;;13.50;99.90;;;;;;4987581;28;20031;-48
2023/03/13 09:16:31;;;;;;;8.73;1.58;;;13.40;99.90;;;;;;4972246;28;20105;-51
2023/03/13 09:18:58;;;;;;;1.63;1.52;;;13.50;99.90;;;;;;4972345;28;20035;-50
2023/03/13 09:21:26;;;;;;;1.75;1.65;;;13.50;99.90;;;;;;4972422;28;20069;-48
2023/03/13 09:23:52;;;;;;;2.17;1.52;;;13.50;99.90;;;;;;4972399;28;20027;-54
2023/03/13 09:26:19;;;;;;;2.38;1.40;;;13.50;99.90;;;;;;4972144;28;20027;-48
2023/03/13 09:28:45;;;;;;;5.93;1.52;;;13.60;99.90;;;;;;4972024;28;20395;-50
2023/03/13 09:31:15;;;;;;;1.92;1.70;;;;;;;;;;4972268;28;20019;-58
2023/03/13 09:33:41;;;;;;;4.55;2.05;;;13.70;99.90;;;;;;4970760;28;20030;-52
2023/03/13 09:36:08;;;;;;;3.72;1.90;;;13.70;99.90;;;;;;4987351;28;20026;-48
2023/03/13 09:38:34;;;;;;;4.28;1.70;;;13.80;99.90;;;;;;4972012;28;20077;-47
2023/03/13 09:41:32;;;;;;;2.17;1.98;;;13.80;99.90;;;;;;4979095;28;20502;-48
2023/03/13 09:44:25;;;;;;;4.40;1.77;;;13.90;99.90;;;;;;4988231;28;20039;-46
2023/03/13 09:47:02;;;;;;;2.72;1.75;;;13.90;99.90;;;;;;4979060;28;20486;-49
2023/03/13 09:49:31;;;;;;;1.80;1.70;;;14.00;99.90;;;;;;4989803;28;20069;-51
2023/03/13 09:52:14;;;;;;;3.30;2.65;;;14.00;99.90;;;;;;4979876;28;20077;-48
2023/03/13 09:54:53;;;;;;;3.95;1.98;;;14.00;99.90;;;;;;4979023;28;20054;-54
2023/03/13 09:57:27;;;;;;;1.65;1.55;;;14.10;99.90;;;;;;4969512;28;20569;-48
2023/03/13 09:59:59;;;;;;;2.58;1.80;;;14.20;99.90;;;;;;4974401;28;20058;-54
2023/03/13 10:02:29;;;;;;;4.45;2.00;;;14.30;99.90;;;;;;4975076;28;20518;-52
2023/03/13 10:05:19;;;;;;;3.03;2.00;;;14.40;99.90;;;;;;4974169;28;20038;-53
2023/03/13 10:07:44;;;;;;;2.97;1.52;;;14.60;99.90;;;;;;4973383;28;20043;-55
2023/03/13 10:10:27;;;;;;;3.33;2.10;;;14.80;99.90;;;;;;4977540;28;20031;-53
2023/03/13 10:13:00;;;;;;;2.58;1.90;;;15.10;99.90;;;;;;4973766;28;20030;-49
2023/03/13 10:15:36;;;;;;;2.35;1.65;;;15.40;99.90;;;;;;4975239;28;20058;-47
2023/03/13 10:18:22;;;;;;;2.67;1.65;;;15.50;99.90;;;;;;4975368;28;20062;-48
2023/03/13 10:20:50;;;;;;;6.90;1.75;;;15.50;99.90;;;;;;4975386;28;20110;-54
2023/03/13 10:23:20;;;;;;;4.43;2.05;;;15.40;99.90;;;;;;4975275;28;20113;-54
2023/03/13 10:25:46;;;;;;;5.05;2.00;;;15.30;99.90;;;;;;4975025;28;20023;-52
2023/03/13 10:28:14;;;;;;;2.33;1.58;;;15.20;99.90;;;;;;4974382;28;20062;-54
2023/03/13 10:30:46;;;;;;;4.32;2.30;;;15.10;99.90;;;;;;4975014;28;20423;-51
2023/03/13 10:33:20;;;;;;;2.67;1.83;;;15.20;99.90;;;;;;4974721;28;20046;-53
2023/03/13 10:36:03;;;;;;;2.13;1.80;;;15.20;99.90;;;;;;4974889;28;20106;-53
2023/03/13 10:38:44;;;;;;;2.58;1.65;;;15.20;99.90;;;;;;4974493;28;20030;-55
2023/03/13 10:41:37;;;;;;;2.20;1.75;;;15.40;99.90;;;;;;4974698;28;20486;-51
2023/03/13 10:44:05;;;;;;;2.67;1.60;;;15.60;99.90;;;;;;4957515;28;20076;-50
2023/03/13 10:46:33;;;;;;;4.07;1.92;;;15.70;99.90;;;;;;4974288;28;20022;-53
2023/03/13 10:49:02;;;;;;;3.47;1.85;;;15.90;99.90;;;;;;4974351;28;20022;-53
2023/03/13 10:51:39;;;;;;;2.90;2.22;;;16.10;99.90;;;;;;4974438;28;20081;-51
2023/03/13 10:54:23;;;;;;;7.43;2.22;;;16.00;99.90;;;;;;4974325;28;20041;-49
2023/03/13 10:56:50;;;;;;;3.20;1.90;;;16.00;99.90;;;;;;4974049;28;20101;-52
2023/03/13 10:59:26;;;;;;;8.07;2.00;;;15.90;99.90;;;;;;4974241;28;20045;-50
2023/03/13 11:01:57;;;;;;;4.90;1.85;;;15.90;99.90;;;;;;4974417;28;20030;-48
2023/03/13 11:04:36;;;;;;;7.47;1.83;;;15.80;99.90;;;;;;4974027;28;20046;-50
2023/03/13 11:07:04;;;;;;;4.82;1.85;;;15.70;99.90;;;;;;4973873;28;20023;-50
2023/03/13 11:09:31;;;;;;;4.28;1.80;;;15.70;99.90;;;;;;4973984;28;20026;-58
2023/03/13 11:12:19;;;;;;;3.08;1.90;;;15.70;99.90;;;;;;4973191;28;20509;-60
2023/03/13 11:14:45;;;;;;;4.90;1.90;;;15.70;99.90;;;;;;4985271;28;20118;-56
2023/03/13 11:17:32;;;;;;;8.57;2.50;;;15.70;99.90;;;;;;4992857;28;20121;-60
2023/03/13 11:20:14;;;;;;;2.70;1.48;;;15.80;99.90;;;;;;4982937;28;20038;-58
2023/03/13 11:22:49;;;;;;;6.90;1.55;;;15.80;99.90;;;;;;4970889;28;20027;-55
2023/03/13 11:25:41;;;;;;;9.27;6.78;;;15.90;99.90;;;;;;4973187;28;20019;-60
2023/03/13 11:28:38;;;;;;;13.25;7.70;;;16.10;99.90;;;;;;4971819;28;20521;-57
2023/03/13 11:31:22;;;;;;;2.92;1.63;;;16.10;99.90;;;;;;4973539;28;20034;-56
2023/03/13 11:33:56;;;;;;;3.22;1.98;;;16.20;99.90;;;;;;4972084;28;20022;-57
2023/03/13 11:36:32;;;;;;;2.85;2.13;;;16.20;99.90;;;;;;4973492;28;20029;-57
2023/03/13 11:39:21;;;;;;;2.88;1.55;;;16.20;99.90;;;;;;4973524;28;20097;-55
2023/03/13 11:42:00;;;;;;;2.95;1.58;;;16.40;99.90;;;;;;4973731;28;20376;-57
2023/03/13 11:44:30;;;;;;;4.13;1.42;;;16.40;99.90;;;;;;4973570;28;20118;-58
2023/03/13 11:47:22;;;;;;;3.20;1.42;;;16.40;99.90;;;;;;4971701;28;20230;-55
2023/03/13 11:49:59;;;;;;;2.05;1.40;;;16.50;99.90;;;;;;4973302;28;20021;-52
2023/03/13 11:52:40;;;;;;;2.47;2.15;;;16.50;99.90;;;;;;4973416;28;20122;-56
2023/03/13 11:55:36;;;;;;;2.83;1.50;;;16.50;99.90;;;;;;4973571;28;20029;-56
2023/03/13 11:58:12;;;;;;;;;;;16.50;99.90;;;;;;4973648;28;20114;-57
2023/03/13 12:00:56;;;;;;;5.65;1.90;;;16.50;99.90;;;;;;4973351;28;20309;-59
2023/03/13 12:03:59;;;;;;;5.53;1.73;;;16.50;99.90;;;;;;4973282;28;20034;-58
2023/03/13 12:06:30;;;;;;;2.40;1.42;;;16.50;99.90;;;;;;4971656;28;20037;-56
2023/03/13 12:09:11;;;;;;;3.47;2.28;;;16.60;99.90;;;;;;4973229;28;20077;-57
2023/03/13 12:11:51;;;;;;;7.85;2.03;;;16.60;99.90;;;;;;4973253;28;20138;-59
2023/03/13 12:14:30;;;;;;;2.25;1.55;;;16.60;99.90;;;;;;4973128;28;20222;-59
2023/03/13 12:17:16;;;;;;;2.35;1.45;;;16.70;99.90;;;;;;4973340;28;20403;-57
2023/03/13 12:19:44;;;;;;;;;;;16.70;99.90;;;;;;4973376;28;20019;-62
2023/03/13 12:22:34;;;;;;;4.30;2.05;;;16.80;99.90;;;;;;4972235;28;19996;-59
2023/03/13 12:25:11;;;;;;;4.70;2.00;;;16.80;99.90;;;;;;4968694;28;20039;-50
2023/03/13 12:27:53;;;;;;;3.85;2.42;;;16.90;99.90;;;;;;4970881;28;20034;-54
2023/03/13 12:30:24;;;;;;;7.18;2.42;;;16.80;99.90;;;;;;4953510;28;20530;-51
2023/03/13 12:33:01;;;;;;;2.42;2.05;;;16.80;99.90;;;;;;4966046;28;20041;-56
2023/03/13 12:35:33;;;;;;;2.10;1.70;;;16.90;99.90;;;;;;4972382;28;20550;-55
2023/03/13 12:38:16;;;;;;;2.58;1.80;;;16.90;99.90;;;;;;4971614;28;20027;-52
2023/03/13 12:41:00;;;;;;;4.22;1.90;;;16.90;99.90;;;;;;4972047;28;20035;-55
2023/03/13 12:43:31;;;;;;;2.97;1.88;;;17.00;99.90;;;;;;4973214;28;20045;-55
2023/03/13 12:45:57;;;;;;;1.60;1.48;;;17.10;99.90;;;;;;4991970;28;20593;-54
2023/03/13 12:48:36;;;;;;;3.28;1.35;;;17.20;99.90;;;;;;4992233;28;20084;-53
2023/03/13 12:51:20;;;;;;;15.75;10.93;;;17.30;99.90;;;;;;4977141;28;20033;-55
2023/03/13 12:54:27;;;;;;;6.47;4.63;;;17.40;99.90;;;;;;4972735;28;20050;-53
2023/03/13 12:57:19;;;;;;;2.38;1.45;;;17.40;99.90;;;;;;4929577;28;20407;-51